createdAt,value
2017-09-19T00:00:28.157Z,3.03
2017-09-19T00:02:55.922Z,2.63
2017-09-19T00:05:23.643Z,2.40
2017-09-19T00:07:51.366Z,2.83
2017-09-19T00:10:19.108Z,2.60
2017-09-19T00:12:46.859Z,2.10
2017-09-19T00:15:15.356Z,2.30
2017-09-19T00:17:43.945Z,2.20
2017-09-19T00:20:12.436Z,3.10
2017-09-19T00:22:40.182Z,2.53
2017-09-19T00:25:07.934Z,2.50
2017-09-19T00:27:35.674Z,2.13
2017-09-19T00:30:03.520Z,2.67
2017-09-19T00:32:31.252Z,3.60
2017-09-19T00:34:58.982Z,2.60
2017-09-19T00:37:26.710Z,3.20
2017-09-19T00:39:54.445Z,4.70
2017-09-19T00:42:22.950Z,4.10
2017-09-19T00:44:50.774Z,3.77
2017-09-19T00:47:18.526Z,4.10
2017-09-19T00:49:46.323Z,4.30
2017-09-19T00:52:14.066Z,5.10
2017-09-19T00:54:41.781Z,4.57
2017-09-19T00:57:09.506Z,4.67
2017-09-19T00:59:37.238Z,5.73
2017-09-19T01:02:05.000Z,5.97
2017-09-19T01:04:32.729Z,5.70
2017-09-19T01:07:01.223Z,5.00
2017-09-19T01:09:28.953Z,6.20
2017-09-19T01:11:56.710Z,4.93
2017-09-19T01:14:24.489Z,6.30
2017-09-19T01:16:52.243Z,4.80
2017-09-19T01:19:19.978Z,5.53
2017-09-19T01:21:47.791Z,6.30
2017-09-19T01:24:15.521Z,7.67
2017-09-19T01:26:43.253Z,7.67
2017-09-19T01:29:11.759Z,7.00
2017-09-19T01:31:39.496Z,8.07
2017-09-19T01:34:07.236Z,8.10
2017-09-19T01:36:35.049Z,8.73
2017-09-19T01:39:02.791Z,9.00
2017-09-19T01:41:30.530Z,8.37
2017-09-19T01:43:58.294Z,8.80
2017-09-19T01:46:26.027Z,9.77
2017-09-19T01:48:53.783Z,8.10
2017-09-19T01:51:21.509Z,9.03
2017-09-19T01:53:49.241Z,9.03
2017-09-19T01:56:17.007Z,8.00
2017-09-19T01:58:44.775Z,10.10
2017-09-19T02:01:12.505Z,9.70
2017-09-19T02:03:40.235Z,9.57
2017-09-19T02:06:07.967Z,9.80
2017-09-19T02:08:35.726Z,10.87
2017-09-19T02:11:03.468Z,11.93
2017-09-19T02:13:31.234Z,10.53
2017-09-19T02:15:58.977Z,10.80
2017-09-19T02:18:26.714Z,9.97
2017-09-19T02:20:54.553Z,11.33
2017-09-19T02:23:22.291Z,11.13
2017-09-19T02:25:50.036Z,10.40
2017-09-19T02:28:17.875Z,10.67
2017-09-19T02:30:45.615Z,9.37
2017-09-19T02:33:13.349Z,9.90
2017-09-19T02:35:41.070Z,11.40
2017-09-19T02:38:08.810Z,10.67
2017-09-19T02:40:36.536Z,9.00
2017-09-19T02:43:04.283Z,9.97
2017-09-19T02:45:32.012Z,10.30
2017-09-19T02:47:59.736Z,9.00
2017-09-19T02:50:27.485Z,9.30
2017-09-19T02:52:55.226Z,9.97
2017-09-19T02:55:22.959Z,9.07
2017-09-19T02:57:50.727Z,4.93
2017-09-19T03:00:19.250Z,4.40
2017-09-19T03:02:46.979Z,4.73
2017-09-19T03:05:14.805Z,4.47
2017-09-19T03:07:42.528Z,4.63
2017-09-19T03:10:10.246Z,4.20
2017-09-19T03:12:38.072Z,4.87
2017-09-19T03:15:05.786Z,4.87
2017-09-19T03:17:33.525Z,4.90
2017-09-19T03:20:02.127Z,5.10
2017-09-19T03:22:29.848Z,4.80
2017-09-19T03:24:57.565Z,4.27
2017-09-19T03:27:26.158Z,4.20
2017-09-19T03:29:53.871Z,4.60
2017-09-19T03:32:21.601Z,5.17
2017-09-19T03:34:49.442Z,5.10
2017-09-19T03:37:17.178Z,5.20
2017-09-19T03:39:44.904Z,4.80
2017-09-19T03:42:12.633Z,5.00
2017-09-19T03:44:40.381Z,4.40
2017-09-19T03:47:08.103Z,5.20
2017-09-19T03:49:36.697Z,5.40
2017-09-19T03:52:04.422Z,5.13
2017-09-19T03:54:32.164Z,4.93
2017-09-19T03:56:59.973Z,4.57
2017-09-19T03:59:27.728Z,5.23
2017-09-19T04:01:55.488Z,4.00
2017-09-19T04:04:23.218Z,4.60
2017-09-19T04:06:50.952Z,4.40
2017-09-19T04:09:18.697Z,5.30
2017-09-19T04:11:46.441Z,5.27
2017-09-19T04:14:14.176Z,5.80
2017-09-19T04:16:41.897Z,6.00
2017-09-19T04:19:10.427Z,6.23
2017-09-19T04:21:38.186Z,6.13
2017-09-19T04:24:05.905Z,6.63
2017-09-19T04:26:33.713Z,7.50
2017-09-19T04:29:01.503Z,7.73
2017-09-19T04:31:29.248Z,8.43
2017-09-19T04:33:57.065Z,8.40
2017-09-19T04:36:24.790Z,8.60
2017-09-19T04:38:53.325Z,8.00
2017-09-19T04:41:21.158Z,7.67
2017-09-19T04:43:48.914Z,7.83
2017-09-19T04:46:16.670Z,9.03
2017-09-19T04:48:44.547Z,9.17
2017-09-19T04:51:12.326Z,9.07
2017-09-19T04:53:40.885Z,8.30
2017-09-19T04:56:08.625Z,8.27
2017-09-19T04:58:36.416Z,9.63
2017-09-19T05:01:07.029Z,7.47
2017-09-19T05:03:35.114Z,7.90
2017-09-19T05:06:02.864Z,8.30
2017-09-19T05:08:30.642Z,8.80
2017-09-19T05:10:59.190Z,9.50
2017-09-19T05:13:26.922Z,9.30
2017-09-19T05:15:54.674Z,9.40
2017-09-19T05:18:22.442Z,10.40
2017-09-19T05:20:50.194Z,11.50
2017-09-19T05:23:17.945Z,11.40
2017-09-19T05:25:45.925Z,13.20
2017-09-19T05:28:13.738Z,11.43
2017-09-19T05:30:41.510Z,11.70
2017-09-19T05:33:09.390Z,10.27
2017-09-19T05:35:37.163Z,10.13
2017-09-19T05:38:04.913Z,11.87
2017-09-19T05:40:32.738Z,10.57
2017-09-19T05:43:01.947Z,9.60
2017-09-19T05:45:29.715Z,9.30
2017-09-19T05:47:57.569Z,7.40
2017-09-19T05:50:26.061Z,6.87
2017-09-19T05:52:53.790Z,7.83
2017-09-19T05:55:21.531Z,6.80
2017-09-19T05:57:49.299Z,6.77
2017-09-19T06:00:17.033Z,6.97
2017-09-19T06:02:45.595Z,5.80
2017-09-19T06:05:13.326Z,5.80
2017-09-19T06:07:41.063Z,5.17
2017-09-19T06:10:08.805Z,5.00
2017-09-19T06:12:36.575Z,6.07
2017-09-19T06:15:04.298Z,4.40
2017-09-19T06:17:32.021Z,4.10
2017-09-19T06:19:59.770Z,3.60
2017-09-19T06:22:28.269Z,3.37
2017-09-19T06:24:56.012Z,2.80
2017-09-19T06:27:23.841Z,2.70
2017-09-19T06:29:51.602Z,2.40
2017-09-19T06:32:19.372Z,2.43
2017-09-19T06:34:47.189Z,2.70
2017-09-19T06:37:14.929Z,1.77
2017-09-19T06:39:42.719Z,1.90
2017-09-19T06:42:10.628Z,1.43
2017-09-19T06:44:38.462Z,1.10
2017-09-19T06:47:06.217Z,1.43
2017-09-19T06:49:34.038Z,0.90
2017-09-19T06:52:01.782Z,1.30
2017-09-19T06:54:29.503Z,1.27
2017-09-19T06:56:57.232Z,1.00
2017-09-19T06:59:24.966Z,1.13
2017-09-19T07:01:52.692Z,1.40
2017-09-19T07:04:20.536Z,1.60
2017-09-19T07:06:48.280Z,1.63
2017-09-19T07:09:16.000Z,1.73
2017-09-19T07:11:43.872Z,1.60
2017-09-19T07:14:11.634Z,1.83
2017-09-19T07:16:39.364Z,1.70
2017-09-19T07:19:07.097Z,1.60
2017-09-19T07:21:34.847Z,2.60
2017-09-19T07:24:02.582Z,3.00
2017-09-19T07:26:30.320Z,3.97
2017-09-19T07:28:58.064Z,5.60
2017-09-19T07:31:25.800Z,5.00
2017-09-19T07:33:53.859Z,4.67
2017-09-19T07:36:23.338Z,3.73
2017-09-19T07:38:51.148Z,4.40
2017-09-19T07:41:18.922Z,4.43
2017-09-19T07:43:46.655Z,4.50
2017-09-19T07:46:14.404Z,4.70
2017-09-19T07:48:42.163Z,4.40
2017-09-19T07:51:09.925Z,4.20
2017-09-19T07:53:37.674Z,3.57
2017-09-19T07:56:05.397Z,3.77
2017-09-19T07:58:33.122Z,4.10
2017-09-19T08:01:00.861Z,4.33
2017-09-19T08:03:29.366Z,4.87
2017-09-19T08:05:57.120Z,4.70
2017-09-19T08:08:24.880Z,6.03
2017-09-19T08:10:53.423Z,5.73
2017-09-19T08:13:21.253Z,6.40
2017-09-19T08:15:48.993Z,7.00
2017-09-19T08:18:17.498Z,6.40
2017-09-19T08:20:45.613Z,6.20
2017-09-19T08:23:13.339Z,7.27
2017-09-19T08:25:41.077Z,5.53
2017-09-19T08:28:08.854Z,6.27
2017-09-19T08:30:36.587Z,6.90
2017-09-19T08:33:04.316Z,6.00
2017-09-19T08:35:32.067Z,6.93
2017-09-19T08:38:00.570Z,5.10
2017-09-19T08:40:28.337Z,5.20
2017-09-19T08:42:56.178Z,5.47
2017-09-19T08:45:23.908Z,5.30
2017-09-19T08:47:51.663Z,5.07
2017-09-19T08:50:19.418Z,4.40
2017-09-19T08:52:47.138Z,4.23
2017-09-19T08:55:15.672Z,4.93
2017-09-19T08:57:43.408Z,3.80
2017-09-19T09:00:11.161Z,3.83
2017-09-19T09:02:38.910Z,4.50
2017-09-19T09:05:07.052Z,3.90
2017-09-19T09:07:34.790Z,4.23
2017-09-19T09:10:02.719Z,3.50
2017-09-19T09:12:31.209Z,4.10
2017-09-19T09:14:58.961Z,4.80
2017-09-19T09:17:26.692Z,5.30
2017-09-19T09:19:54.429Z,5.40
2017-09-19T09:22:22.173Z,5.33
2017-09-19T09:24:49.909Z,4.70
2017-09-19T09:27:17.636Z,6.00
2017-09-19T09:29:45.366Z,5.50
2017-09-19T09:32:13.101Z,4.80
2017-09-19T09:34:40.923Z,4.70
2017-09-19T09:37:09.423Z,5.07
2017-09-19T09:39:37.154Z,3.83
2017-09-19T09:42:04.902Z,6.30
2017-09-19T09:44:32.615Z,4.70
2017-09-19T09:47:00.345Z,3.53
2017-09-19T09:49:28.078Z,2.57
2017-09-19T09:51:55.820Z,2.97
2017-09-19T09:54:23.560Z,2.73
2017-09-19T09:56:52.048Z,2.50
2017-09-19T09:59:20.531Z,2.87
2017-09-19T10:01:48.259Z,2.83
2017-09-19T10:04:15.997Z,1.60
2017-09-19T10:06:43.821Z,2.00
2017-09-19T10:09:11.536Z,1.97
2017-09-19T10:11:39.257Z,2.23
2017-09-19T10:14:07.745Z,2.27
2017-09-19T10:16:35.468Z,2.80
2017-09-19T10:19:03.191Z,2.60
2017-09-19T10:21:30.998Z,2.67
2017-09-19T10:23:58.734Z,2.13
2017-09-19T10:26:26.459Z,3.70
2017-09-19T10:28:54.261Z,2.20
2017-09-19T10:31:21.980Z,1.70
2017-09-19T10:33:49.708Z,2.37
2017-09-19T10:36:17.538Z,1.70
2017-09-19T10:38:46.030Z,2.40
2017-09-19T10:41:14.516Z,1.77
2017-09-19T10:43:42.291Z,2.20
2017-09-19T10:46:10.038Z,2.40
2017-09-19T10:48:37.941Z,1.90
2017-09-19T10:51:05.675Z,2.30
2017-09-19T10:53:34.269Z,2.07
2017-09-19T10:56:01.997Z,2.87
2017-09-19T10:58:29.731Z,2.97
2017-09-19T11:00:57.650Z,1.90
2017-09-19T11:03:27.237Z,2.40
2017-09-19T11:05:55.617Z,2.00
2017-09-19T11:08:23.410Z,1.83
2017-09-19T11:10:52.931Z,2.30
2017-09-19T11:13:20.730Z,2.33
2017-09-19T11:15:48.513Z,1.87
2017-09-19T11:18:16.360Z,1.20
2017-09-19T11:20:44.180Z,1.57
2017-09-19T11:23:11.934Z,1.40
2017-09-19T11:25:39.786Z,1.17
2017-09-19T11:28:07.580Z,1.97
2017-09-19T11:30:35.344Z,1.70
2017-09-19T11:33:03.109Z,1.13
2017-09-19T11:35:30.867Z,1.20
2017-09-19T11:37:58.828Z,1.30
2017-09-19T11:40:26.694Z,1.30
2017-09-19T11:42:54.443Z,1.20
2017-09-19T11:45:22.381Z,1.10
2017-09-19T11:47:50.898Z,1.07
2017-09-19T11:50:18.633Z,0.80
2017-09-19T11:52:46.377Z,0.50
2017-09-19T11:55:14.228Z,0.50
2017-09-19T11:57:41.958Z,0.70
2017-09-19T12:00:09.737Z,0.60
2017-09-19T12:02:37.507Z,0.50
2017-09-19T12:05:05.268Z,0.67
2017-09-19T12:07:33.010Z,0.50
2017-09-19T12:10:00.834Z,0.50
2017-09-19T12:12:28.638Z,0.30
2017-09-19T12:14:56.395Z,0.40
2017-09-19T12:17:24.167Z,0.43
2017-09-19T12:19:51.944Z,0.57
2017-09-19T12:22:19.686Z,0.80
2017-09-19T12:24:47.463Z,0.37
2017-09-19T12:27:15.203Z,0.60
2017-09-19T12:29:42.952Z,0.40
2017-09-19T12:32:17.964Z,1.13
2017-09-19T12:34:45.721Z,0.40
2017-09-19T12:37:13.586Z,0.60
2017-09-19T12:39:41.329Z,0.40
2017-09-19T12:42:09.135Z,0.30
2017-09-19T12:44:37.100Z,0.40
2017-09-19T12:47:04.894Z,0.33
2017-09-19T12:49:32.645Z,0.40
2017-09-19T12:52:00.492Z,0.30
2017-09-19T12:54:28.285Z,0.30
2017-09-19T12:56:56.012Z,0.40
2017-09-19T12:59:23.820Z,0.30
2017-09-19T13:01:51.628Z,0.50
2017-09-19T13:04:19.501Z,0.30
2017-09-19T13:06:48.028Z,0.40
2017-09-19T13:09:15.831Z,0.40
2017-09-19T13:11:43.655Z,0.50
2017-09-19T13:14:11.544Z,0.30
2017-09-19T13:16:39.298Z,0.30
2017-09-19T13:19:07.069Z,0.30
2017-09-19T13:21:34.980Z,0.40
2017-09-19T13:24:02.729Z,0.30
2017-09-19T13:26:30.450Z,0.30
2017-09-19T13:28:58.197Z,0.40
2017-09-19T13:44:52.694Z,0.50
2017-09-19T13:47:20.509Z,0.30
2017-09-19T13:49:48.323Z,0.50
2017-09-19T13:52:16.117Z,0.30
2017-09-19T13:54:43.879Z,0.30
2017-09-19T13:57:11.670Z,0.40
2017-09-19T13:59:39.587Z,0.40
2017-09-19T14:02:07.328Z,0.50
2017-09-19T14:04:35.176Z,0.40
2017-09-19T14:07:02.972Z,0.40
2017-09-19T14:09:30.715Z,0.30
2017-09-19T14:11:58.508Z,0.30
2017-09-19T14:14:26.319Z,0.50
2017-09-19T14:16:54.889Z,0.30
2017-09-19T14:19:22.716Z,0.20
2017-09-19T14:21:50.530Z,0.50
2017-09-19T14:24:19.021Z,0.33
2017-09-19T14:26:46.870Z,0.40
2017-09-19T14:29:14.665Z,0.40
2017-09-19T14:31:42.385Z,0.70
2017-09-19T14:34:10.114Z,0.47
2017-09-19T14:36:37.934Z,0.40
2017-09-19T14:39:05.741Z,0.50
2017-09-19T14:41:33.493Z,0.50
2017-09-19T14:44:01.216Z,0.40
2017-09-19T14:46:28.965Z,0.33
2017-09-19T14:48:56.825Z,0.40
2017-09-19T14:51:24.660Z,0.50
2017-09-19T14:53:53.172Z,0.43
2017-09-19T14:56:21.028Z,0.30
2017-09-19T14:58:48.833Z,0.37
2017-09-19T15:01:16.639Z,0.30
2017-09-19T15:03:45.201Z,0.50
2017-09-19T15:06:12.985Z,0.50
2017-09-19T15:08:40.754Z,0.40
2017-09-19T15:11:17.639Z,2.40
2017-09-19T15:13:45.608Z,3.27
2017-09-19T15:16:14.134Z,0.40
2017-09-19T15:18:43.472Z,0.60
2017-09-19T15:21:12.156Z,0.57
2017-09-19T15:23:40.224Z,0.30
2017-09-19T15:26:11.093Z,0.40
2017-09-19T15:28:42.865Z,0.30
2017-09-19T15:31:12.555Z,0.40
2017-09-19T15:33:40.531Z,1.30
2017-09-19T15:36:12.982Z,0.50
2017-09-19T15:38:40.871Z,0.60
2017-09-19T15:41:08.626Z,0.60
2017-09-19T15:47:06.148Z,4.60
2017-09-19T15:49:34.688Z,0.90
2017-09-19T15:52:02.463Z,0.60
2017-09-19T15:54:30.247Z,0.50
2017-09-19T15:56:58.029Z,0.60
2017-09-19T16:02:43.078Z,0.87
2017-09-19T16:05:15.100Z,0.57
2017-09-19T16:07:57.997Z,0.70
2017-09-19T16:10:29.671Z,0.60
2017-09-19T16:13:01.649Z,0.67
2017-09-19T16:15:44.950Z,0.60
2017-09-19T16:18:21.688Z,0.63
2017-09-19T16:21:02.833Z,0.67
2017-09-19T16:23:34.698Z,2.60
2017-09-19T16:26:02.636Z,0.77
2017-09-19T16:28:30.683Z,0.60
2017-09-19T16:30:59.580Z,0.70
2017-09-19T16:33:27.582Z,0.47
2017-09-19T16:35:55.458Z,0.50
2017-09-19T16:38:28.405Z,1.00
2017-09-19T16:40:56.198Z,0.60
2017-09-19T16:43:24.033Z,0.60
2017-09-19T16:45:51.869Z,1.10
2017-09-19T16:48:28.015Z,0.70
2017-09-19T16:50:55.781Z,1.00
2017-09-19T16:53:23.543Z,0.50
2017-09-19T16:55:51.400Z,0.97
2017-09-19T16:58:21.830Z,1.13
2017-09-19T17:00:50.418Z,1.50
2017-09-19T17:03:18.367Z,1.57
2017-09-19T17:05:47.797Z,0.70
2017-09-19T17:08:16.570Z,1.33
2017-09-19T17:10:44.533Z,0.63
2017-09-19T17:13:12.447Z,0.60
2017-09-19T17:15:41.004Z,0.70
2017-09-19T17:18:09.017Z,0.77
2017-09-19T17:20:43.171Z,0.60
2017-09-19T17:23:11.167Z,0.60
2017-09-19T17:25:39.670Z,0.60
2017-09-19T17:28:09.887Z,0.50
2017-09-19T17:30:39.163Z,3.27
2017-09-19T17:33:10.340Z,1.03
2017-09-19T17:35:40.075Z,0.50
2017-09-19T17:38:08.113Z,0.70
2017-09-19T17:40:36.730Z,2.03
2017-09-19T17:43:05.451Z,1.10
2017-09-19T17:45:33.339Z,0.70
2017-09-19T18:01:40.298Z,0.40
2017-09-19T18:04:08.138Z,0.60
2017-09-19T18:06:36.707Z,0.53
2017-09-19T18:09:04.542Z,0.97
2017-09-19T18:11:32.454Z,1.00
2017-09-19T18:14:00.930Z,0.73
2017-09-19T18:16:29.600Z,0.50
2017-09-19T18:18:58.132Z,0.87
2017-09-19T18:21:25.964Z,1.97
2017-09-19T18:23:53.848Z,0.40
2017-09-19T18:26:23.460Z,0.77
2017-09-19T18:28:51.465Z,0.50
2017-09-19T18:31:19.461Z,0.50
2017-09-19T18:34:12.131Z,0.53
2017-09-19T18:36:40.060Z,1.03
2017-09-19T18:39:08.018Z,1.80
2017-09-19T18:41:35.981Z,2.50
2017-09-19T18:44:13.104Z,0.67
2017-09-19T18:46:42.703Z,0.40
2017-09-19T18:49:11.774Z,0.70
2017-09-19T18:51:41.127Z,0.63
2017-09-19T18:54:10.140Z,0.40
2017-09-19T18:56:40.873Z,0.50
2017-09-19T18:59:11.836Z,0.80
2017-09-19T19:01:44.774Z,0.67
2017-09-19T19:04:14.255Z,1.07
2017-09-19T19:11:13.528Z,0.80
2017-09-19T19:13:43.792Z,0.70
2017-09-19T19:16:15.980Z,0.60
2017-09-19T19:18:47.071Z,0.90
2017-09-19T19:21:16.393Z,0.50
2017-09-19T19:23:45.162Z,0.70
2017-09-19T19:26:14.376Z,0.60
2017-09-19T19:29:07.425Z,1.20
2017-09-19T19:41:59.059Z,0.70
2017-09-19T19:47:10.628Z,0.57
2017-09-19T19:49:38.569Z,0.53
2017-09-19T19:52:06.566Z,0.53
2017-09-19T19:54:44.904Z,0.50
2017-09-19T19:57:13.975Z,1.33
2017-09-19T19:59:41.899Z,0.73
2017-09-19T20:02:21.546Z,0.60
2017-09-19T20:04:49.533Z,0.50
2017-09-19T20:07:29.401Z,0.60
2017-09-19T20:10:01.998Z,0.80
2017-09-19T20:12:53.373Z,0.67
2017-09-19T20:15:21.351Z,0.70
2017-09-19T20:17:52.369Z,0.70
2017-09-19T20:23:44.970Z,0.80
2017-09-19T20:26:38.870Z,0.43
2017-09-19T20:29:21.002Z,0.63
2017-09-19T20:31:52.489Z,0.43
2017-09-19T20:34:22.055Z,0.50
2017-09-19T20:37:01.846Z,0.50
2017-09-19T20:39:32.332Z,0.60
2017-09-19T20:42:01.366Z,0.70
2017-09-19T20:44:29.487Z,0.37
2017-09-19T20:46:58.488Z,0.30
2017-09-19T20:49:27.837Z,0.40
2017-09-19T20:51:56.098Z,4.23
2017-09-19T20:54:23.976Z,0.40
2017-09-19T20:56:51.861Z,0.47
2017-09-19T20:59:19.796Z,0.40
2017-09-19T21:01:48.506Z,0.40
2017-09-19T21:04:23.003Z,0.50
2017-09-19T21:06:58.114Z,0.80
2017-09-19T21:09:32.264Z,0.73
2017-09-19T21:12:06.450Z,0.60
2017-09-19T21:14:39.787Z,0.50
2017-09-19T21:17:14.097Z,0.63
2017-09-19T21:19:42.077Z,0.70
2017-09-19T21:22:09.861Z,0.60
2017-09-19T21:24:37.815Z,0.80
2017-09-19T21:27:06.451Z,0.77
2017-09-19T21:29:35.043Z,0.63
2017-09-19T21:32:02.911Z,0.67
2017-09-19T21:34:31.767Z,0.77
2017-09-19T21:36:59.675Z,0.80
2017-09-19T21:39:27.519Z,0.50
2017-09-19T21:41:56.140Z,0.60
2017-09-19T21:44:24.841Z,0.70
2017-09-19T21:46:53.273Z,1.07
2017-09-19T21:49:23.254Z,0.40
2017-09-19T21:51:51.172Z,0.70
2017-09-19T21:54:19.993Z,0.70
2017-09-19T21:56:48.237Z,0.40
2017-09-19T21:59:16.569Z,0.33
2017-09-19T22:01:45.562Z,0.30
2017-09-19T22:04:15.979Z,0.40
2017-09-19T22:06:44.156Z,0.50
2017-09-19T22:09:12.086Z,0.40
2017-09-19T22:11:40.052Z,0.50
2017-09-19T22:14:08.150Z,0.60
2017-09-19T22:16:36.104Z,0.40
2017-09-19T22:19:04.082Z,0.50
2017-09-19T22:21:32.687Z,0.40
2017-09-19T22:24:00.609Z,0.30
2017-09-19T22:26:28.515Z,0.40
2017-09-19T22:28:57.146Z,0.40
2017-09-19T22:31:25.075Z,0.40
2017-09-19T22:33:53.034Z,0.50
2017-09-19T22:36:21.077Z,0.37
2017-09-19T22:38:49.033Z,0.50
2017-09-19T22:41:16.952Z,0.40
2017-09-19T22:43:46.596Z,0.40
2017-09-19T22:46:14.553Z,0.40
2017-09-19T22:48:42.507Z,0.40
2017-09-19T22:51:10.421Z,0.50
2017-09-19T22:59:45.753Z,0.50
2017-09-19T23:02:16.848Z,0.40
2017-09-19T23:04:46.505Z,0.30
2017-09-19T23:07:15.209Z,0.37
2017-09-19T23:09:44.970Z,0.50
2017-09-19T23:12:15.767Z,0.30
2017-09-19T23:22:11.251Z,0.50
2017-09-19T23:24:39.419Z,0.50
2017-09-19T23:27:09.458Z,0.40
2017-09-19T23:29:39.143Z,0.40
2017-09-19T23:37:08.450Z,0.40
2017-09-19T23:53:20.523Z,0.30
2017-09-19T23:55:48.599Z,0.50
2017-09-19T23:58:16.568Z,0.53
